createdAt,value
2023-03-13T00:01:34.574Z,94.90
2023-03-13T00:04:01.916Z,94.90
2023-03-13T00:06:32.767Z,94.90
2023-03-13T00:09:02.654Z,94.90
2023-03-13T00:11:29.723Z,94.90
2023-03-13T00:13:58.009Z,94.90
2023-03-13T00:16:25.430Z,94.90
2023-03-13T00:18:54.227Z,94.80
2023-03-13T00:21:23.381Z,94.80
2023-03-13T00:23:50.872Z,94.90
2023-03-13T00:26:20.142Z,94.90
2023-03-13T00:28:47.099Z,94.80
2023-03-13T00:31:19.795Z,94.80
2023-03-13T00:33:49.705Z,94.80
2023-03-13T00:36:19.096Z,94.80
2023-03-13T00:38:46.455Z,94.80
2023-03-13T00:41:15.963Z,94.80
2023-03-13T00:43:44.327Z,94.80
2023-03-13T00:46:12.303Z,94.80
2023-03-13T00:48:39.138Z,94.80
2023-03-13T00:51:06.941Z,94.80
2023-03-13T00:53:34.565Z,94.80
2023-03-13T00:56:03.007Z,94.80
2023-03-13T00:58:32.484Z,94.80
2023-03-13T01:01:11.150Z,94.80
2023-03-13T01:03:39.026Z,94.80
2023-03-13T01:06:08.062Z,94.80
2023-03-13T01:08:35.297Z,94.80
2023-03-13T01:11:10.814Z,94.80
2023-03-13T01:13:38.467Z,94.80
2023-03-13T01:16:10.496Z,94.80
2023-03-13T01:18:38.890Z,94.80
2023-03-13T01:21:06.156Z,94.80
2023-03-13T01:23:33.024Z,94.80
2023-03-13T01:25:59.827Z,94.80
2023-03-13T01:28:27.336Z,94.80
2023-03-13T01:30:54.142Z,94.80
2023-03-13T01:33:21.039Z,94.80
2023-03-13T01:35:47.875Z,94.80
2023-03-13T01:38:15.045Z,94.80
2023-03-13T01:40:47.483Z,94.80
2023-03-13T01:43:27.658Z,94.80
2023-03-13T01:46:27.971Z,94.80
2023-03-13T01:48:54.836Z,94.80
2023-03-13T01:51:29.681Z,94.80
2023-03-13T01:54:05.626Z,94.80
2023-03-13T01:56:46.051Z,94.80
2023-03-13T01:59:16.708Z,94.90
2023-03-13T02:01:45.760Z,94.90
2023-03-13T02:04:15.432Z,94.90
2023-03-13T02:06:45.270Z,94.90
2023-03-13T02:09:18.354Z,94.90
2023-03-13T02:11:50.039Z,94.90
2023-03-13T02:14:22.320Z,94.90
2023-03-13T02:16:51.986Z,94.90
2023-03-13T02:19:27.899Z,94.90
2023-03-13T02:22:18.849Z,94.90
2023-03-13T02:25:13.452Z,94.90
2023-03-13T02:27:41.131Z,94.90
2023-03-13T02:30:12.058Z,94.90
2023-03-13T02:32:39.703Z,95.00
2023-03-13T02:35:12.459Z,95.00
2023-03-13T02:37:41.961Z,94.90
2023-03-13T02:40:17.937Z,94.90
2023-03-13T02:42:46.081Z,94.90
2023-03-13T02:45:17.601Z,94.90
2023-03-13T02:47:44.531Z,94.90
2023-03-13T02:50:13.411Z,94.90
2023-03-13T02:52:55.330Z,94.90
2023-03-13T02:55:32.735Z,94.90
2023-03-13T02:57:59.497Z,94.90
2023-03-13T03:00:27.241Z,94.90
2023-03-13T03:02:54.584Z,94.90
2023-03-13T03:05:22.282Z,94.90
2023-03-13T03:07:50.348Z,94.90
2023-03-13T03:10:18.752Z,94.90
2023-03-13T03:12:45.743Z,94.90
2023-03-13T03:15:12.876Z,94.90
2023-03-13T03:17:39.826Z,94.90
2023-03-13T03:20:11.965Z,94.90
2023-03-13T03:22:40.785Z,94.90
2023-03-13T03:25:09.343Z,95.00
2023-03-13T03:27:36.961Z,95.00
2023-03-13T03:30:05.653Z,95.00
2023-03-13T03:32:32.915Z,95.00
2023-03-13T03:34:59.681Z,95.00
2023-03-13T03:37:26.471Z,95.00
2023-03-13T03:39:55.524Z,95.00
2023-03-13T03:42:22.249Z,95.10
2023-03-13T03:44:49.124Z,95.10
2023-03-13T03:47:15.923Z,95.10
2023-03-13T03:49:42.728Z,95.10
2023-03-13T03:52:09.449Z,95.10
2023-03-13T03:54:36.156Z,95.10
2023-03-13T03:57:02.880Z,95.10
2023-03-13T03:59:29.740Z,95.10
2023-03-13T04:01:56.628Z,95.10
2023-03-13T04:04:23.493Z,95.20
2023-03-13T04:06:50.187Z,95.20
2023-03-13T04:09:16.965Z,95.20
2023-03-13T04:11:43.750Z,95.20
2023-03-13T04:14:10.416Z,95.20
2023-03-13T04:16:37.210Z,95.20
2023-03-13T04:19:04.005Z,95.30
2023-03-13T04:21:30.886Z,95.30
2023-03-13T04:23:57.657Z,95.30
2023-03-13T04:26:24.444Z,95.30
2023-03-13T04:28:51.193Z,95.30
2023-03-13T04:31:18.135Z,95.30
2023-03-13T04:33:44.844Z,95.30
2023-03-13T04:36:11.640Z,95.30
2023-03-13T04:38:38.431Z,95.30
2023-03-13T04:41:05.243Z,95.40
2023-03-13T04:43:31.999Z,95.40
2023-03-13T04:45:58.794Z,95.30
2023-03-13T04:48:25.529Z,95.30
2023-03-13T04:50:52.187Z,95.30
2023-03-13T04:53:19.463Z,95.30
2023-03-13T04:55:48.091Z,95.30
2023-03-13T04:58:14.840Z,95.30
2023-03-13T05:00:41.817Z,95.40
2023-03-13T05:03:08.515Z,95.40
2023-03-13T05:05:35.704Z,95.40
2023-03-13T05:08:02.750Z,95.40
2023-03-13T05:10:29.543Z,95.40
2023-03-13T05:12:56.314Z,95.40
2023-03-13T05:15:22.993Z,95.40
2023-03-13T05:17:49.730Z,95.40
2023-03-13T05:20:16.576Z,95.40
2023-03-13T05:22:43.306Z,95.40
2023-03-13T05:25:10.439Z,95.40
2023-03-13T05:27:37.130Z,95.40
2023-03-13T05:30:04.131Z,95.40
2023-03-13T05:32:30.886Z,95.40
2023-03-13T05:34:57.680Z,95.40
2023-03-13T05:37:24.479Z,95.50
2023-03-13T05:39:51.362Z,95.50
2023-03-13T05:42:18.154Z,95.50
2023-03-13T05:44:44.820Z,95.50
2023-03-13T05:47:11.582Z,95.50
2023-03-13T05:49:38.303Z,95.50
2023-03-13T05:52:05.378Z,95.50
2023-03-13T05:54:32.185Z,95.50
2023-03-13T05:56:58.879Z,95.50
2023-03-13T05:59:25.648Z,95.50
2023-03-13T06:01:52.393Z,95.60
2023-03-13T06:04:19.236Z,95.60
2023-03-13T06:06:46.771Z,95.60
2023-03-13T06:09:13.561Z,95.60
2023-03-13T06:11:40.375Z,95.60
2023-03-13T06:14:07.322Z,95.60
2023-03-13T06:16:34.960Z,95.60
2023-03-13T06:19:02.279Z,95.60
2023-03-13T06:21:29.064Z,95.60
2023-03-13T06:23:56.392Z,95.60
2023-03-13T06:26:24.825Z,95.60
2023-03-13T06:28:52.080Z,95.60
2023-03-13T06:31:19.017Z,95.60
2023-03-13T06:33:45.771Z,95.70
2023-03-13T06:36:12.830Z,95.70
2023-03-13T06:38:39.605Z,95.70
2023-03-13T06:41:06.310Z,95.70
2023-03-13T06:43:33.145Z,95.70
2023-03-13T06:46:05.164Z,95.70
2023-03-13T06:48:32.006Z,95.80
2023-03-13T06:50:58.934Z,95.80
2023-03-13T06:53:25.898Z,95.80
2023-03-13T06:55:52.627Z,95.90
2023-03-13T06:58:31.743Z,95.90
2023-03-13T07:01:05.586Z,95.90
2023-03-13T07:03:32.442Z,96.00
2023-03-13T07:05:59.954Z,96.00
2023-03-13T07:08:27.130Z,91.40
2023-03-13T07:10:58.254Z,91.40
2023-03-13T07:13:25.044Z,91.50
2023-03-13T07:15:52.021Z,91.50
2023-03-13T07:18:18.739Z,91.60
2023-03-13T07:20:45.498Z,91.60
2023-03-13T07:23:12.206Z,91.70
2023-03-13T07:25:38.932Z,91.70
2023-03-13T07:28:05.687Z,91.70
2023-03-13T07:30:32.388Z,91.70
2023-03-13T07:32:59.174Z,91.80
2023-03-13T07:35:25.975Z,91.80
2023-03-13T07:37:52.913Z,91.80
2023-03-13T07:40:19.716Z,91.90
2023-03-13T07:42:46.481Z,91.90
2023-03-13T07:45:13.488Z,91.90
2023-03-13T07:47:40.211Z,91.90
2023-03-13T07:50:08.233Z,91.90
2023-03-13T07:52:35.059Z,91.90
2023-03-13T07:55:01.815Z,91.90
2023-03-13T07:57:28.612Z,91.90
2023-03-13T07:59:55.474Z,91.90
2023-03-13T08:02:22.344Z,91.90
2023-03-13T08:04:52.922Z,91.90
2023-03-13T08:07:19.923Z,91.90
2023-03-13T08:09:46.758Z,91.90
2023-03-13T08:12:13.472Z,92.00
2023-03-13T08:14:40.241Z,92.00
2023-03-13T08:17:07.135Z,92.10
2023-03-13T08:19:33.872Z,91.90
2023-03-13T08:22:00.539Z,91.90
2023-03-13T08:24:27.320Z,91.90
2023-03-13T08:26:54.079Z,91.90
2023-03-13T08:29:20.821Z,91.90
2023-03-13T08:31:49.377Z,91.90
2023-03-13T08:34:17.377Z,91.90
2023-03-13T08:36:44.592Z,92.00
2023-03-13T08:39:17.046Z,91.90
2023-03-13T08:41:44.389Z,91.90
2023-03-13T08:44:16.993Z,91.90
2023-03-13T08:46:44.519Z,91.90
2023-03-13T08:49:12.182Z,91.90
2023-03-13T08:51:39.495Z,91.80
2023-03-13T08:54:06.500Z,91.80
2023-03-13T08:56:34.820Z,91.80
2023-03-13T08:59:03.243Z,91.90
2023-03-13T09:01:34.183Z,91.90
2023-03-13T09:04:04.230Z,91.80
2023-03-13T09:06:33.469Z,91.70
2023-03-13T09:09:00.249Z,91.70
2023-03-13T09:11:27.424Z,91.50
2023-03-13T09:13:56.070Z,91.20
2023-03-13T09:16:25.159Z,91.10
2023-03-13T09:18:53.002Z,90.80
2023-03-13T09:21:22.973Z,90.60
2023-03-13T09:23:50.311Z,90.00
2023-03-13T09:26:18.955Z,88.50
2023-03-13T09:28:46.901Z,87.40
2023-03-13T09:31:16.762Z,86.40
2023-03-13T09:33:45.364Z,85.80
2023-03-13T09:36:13.098Z,83.70
2023-03-13T09:38:40.532Z,80.00
2023-03-13T09:41:22.386Z,79.40
2023-03-13T09:44:02.504Z,76.00
2023-03-13T09:46:53.773Z,73.20
2023-03-13T09:49:32.388Z,71.00
2023-03-13T09:52:05.935Z,64.90
2023-03-13T09:54:41.130Z,63.10
2023-03-13T09:57:15.501Z,44.30
2023-03-13T09:59:48.375Z,44.40
2023-03-13T10:02:27.466Z,31.60
2023-03-13T10:05:17.937Z,21.80
2023-03-13T10:07:45.022Z,1.00
2023-03-13T10:10:19.140Z,1.00
2023-03-13T10:12:48.851Z,1.00
2023-03-13T10:15:43.203Z,1.00
2023-03-13T10:18:18.119Z,4.60
2023-03-13T10:20:49.690Z,63.10
2023-03-13T10:23:40.633Z,87.70
2023-03-13T10:26:17.701Z,87.10
2023-03-13T10:28:44.481Z,70.00
2023-03-13T10:31:31.048Z,1.00
2023-03-13T10:34:11.653Z,1.00
2023-03-13T10:36:47.694Z,90.60
2023-03-13T10:39:20.993Z,1.00
2023-03-13T10:41:49.315Z,1.00
2023-03-13T10:44:19.906Z,1.00
2023-03-13T10:46:48.744Z,1.00
2023-03-13T10:49:20.597Z,4.60
2023-03-13T10:51:59.384Z,64.50
2023-03-13T10:54:30.358Z,1.00
2023-03-13T10:57:18.828Z,1.00
2023-03-13T10:59:55.328Z,1.00
2023-03-13T11:02:39.492Z,17.00
2023-03-13T11:05:30.919Z,87.30
2023-03-13T11:07:57.704Z,1.00
2023-03-13T11:10:30.460Z,24.80
2023-03-13T11:12:58.799Z,79.80
2023-03-13T11:15:34.916Z,65.30
2023-03-13T11:18:12.875Z,1.00
2023-03-13T11:20:40.772Z,1.00
2023-03-13T11:23:24.314Z,1.00
2023-03-13T11:26:12.364Z,1.00
2023-03-13T11:29:13.278Z,86.30
2023-03-13T11:31:45.033Z,91.40
2023-03-13T11:34:32.537Z,32.60
2023-03-13T11:37:12.078Z,2.40
2023-03-13T11:39:57.784Z,1.00
2023-03-13T11:43:11.383Z,2.00
2023-03-13T11:46:07.090Z,1.00
2023-03-13T11:48:55.039Z,1.00
2023-03-13T11:51:24.549Z,1.00
2023-03-13T11:54:23.318Z,91.90
2023-03-13T11:57:30.604Z,84.60
2023-03-13T12:00:25.314Z,79.00
2023-03-13T12:03:10.678Z,65.10
2023-03-13T12:06:27.854Z,61.90
2023-03-13T12:09:19.617Z,64.90
2023-03-13T12:12:15.227Z,55.70
2023-03-13T12:14:52.558Z,62.70
2023-03-13T12:17:34.884Z,60.00
2023-03-13T12:20:09.321Z,54.50
2023-03-13T12:22:42.832Z,63.90
2023-03-13T12:25:23.634Z,25.40
2023-03-13T12:28:05.566Z,20.20
2023-03-13T12:30:48.989Z,1.20
2023-03-13T12:33:24.596Z,10.20
2023-03-13T12:36:08.003Z,1.00
2023-03-13T12:38:58.631Z,1.00
2023-03-13T12:41:34.853Z,1.00
2023-03-13T12:44:08.683Z,93.00
2023-03-13T12:46:44.016Z,92.10
2023-03-13T12:49:44.154Z,85.20
2023-03-13T12:52:32.131Z,81.60
2023-03-13T12:55:17.850Z,73.50
2023-03-13T12:57:58.759Z,70.60
2023-03-13T13:00:28.388Z,65.70
2023-03-13T13:03:21.733Z,62.70
2023-03-13T13:06:05.567Z,46.40
2023-03-13T13:08:38.954Z,53.90
2023-03-13T13:11:33.553Z,34.90
2023-03-13T13:14:18.954Z,27.40
2023-03-13T13:16:54.312Z,2.00
2023-03-13T13:19:23.971Z,2.40
2023-03-13T13:22:28.551Z,1.00
2023-03-13T13:25:00.275Z,1.00
2023-03-13T13:27:32.961Z,1.00
2023-03-13T13:30:01.534Z,1.00
2023-03-13T13:32:31.196Z,1.00
2023-03-13T13:35:17.667Z,1.00
2023-03-13T13:37:44.736Z,1.00
2023-03-13T13:40:29.096Z,1.00
2023-03-13T13:42:59.777Z,1.00
2023-03-13T13:45:32.525Z,1.00
2023-03-13T13:48:30.354Z,1.00
2023-03-13T13:51:12.354Z,1.00
2023-03-13T13:53:56.835Z,1.00
2023-03-13T13:56:29.518Z,1.00
2023-03-13T13:59:20.664Z,1.00
2023-03-13T14:02:13.761Z,1.00
2023-03-13T14:04:43.727Z,1.00
2023-03-13T14:07:29.672Z,1.00
2023-03-13T14:09:59.299Z,1.00
2023-03-13T14:12:34.598Z,1.00
2023-03-13T14:15:11.988Z,1.00
2023-03-13T14:17:43.046Z,1.00
2023-03-13T14:20:35.487Z,1.00
2023-03-13T14:23:10.347Z,1.00
2023-03-13T14:25:55.264Z,1.00
2023-03-13T14:28:27.494Z,1.00
2023-03-13T14:30:57.227Z,1.00
2023-03-13T14:33:26.816Z,1.00
2023-03-13T14:35:53.681Z,1.00
2023-03-13T14:38:29.937Z,1.00
2023-03-13T14:40:57.272Z,1.00
2023-03-13T14:43:32.339Z,1.00
2023-03-13T14:46:00.668Z,1.00
2023-03-13T14:48:34.071Z,1.00
2023-03-13T14:51:18.972Z,1.00
2023-03-13T14:53:59.699Z,1.00
2023-03-13T14:56:42.172Z,1.00
2023-03-13T14:59:23.858Z,1.00
2023-03-13T15:02:15.155Z,1.00
2023-03-13T15:04:52.730Z,1.00
2023-03-13T15:07:20.020Z,1.00
2023-03-13T15:09:48.820Z,1.00
2023-03-13T15:12:22.010Z,1.00
2023-03-13T15:14:53.016Z,1.00
2023-03-13T15:17:25.728Z,1.00
2023-03-13T15:19:57.133Z,1.00
2023-03-13T15:22:32.746Z,1.00
2023-03-13T15:25:07.869Z,1.00
2023-03-13T15:27:35.339Z,1.00
2023-03-13T15:30:02.214Z,1.00
2023-03-13T15:32:38.630Z,1.00
2023-03-13T15:35:32.404Z,1.00
2023-03-13T15:38:01.287Z,1.00
2023-03-13T15:40:30.838Z,1.00
2023-03-13T15:42:59.305Z,1.00
2023-03-13T15:45:26.038Z,1.00
2023-03-13T15:47:53.195Z,1.00
2023-03-13T15:50:22.424Z,1.00
2023-03-13T15:52:49.348Z,1.00
2023-03-13T15:55:16.147Z,1.00
2023-03-13T15:57:46.985Z,1.00
2023-03-13T16:00:21.326Z,1.00
2023-03-13T16:02:48.244Z,1.00
2023-03-13T16:05:15.278Z,1.00
2023-03-13T16:07:42.154Z,1.00
2023-03-13T16:10:23.774Z,1.00
2023-03-13T16:12:52.024Z,1.00
2023-03-13T16:15:18.785Z,1.00
2023-03-13T16:17:45.664Z,1.00
2023-03-13T16:20:18.547Z,1.00
2023-03-13T16:22:45.609Z,1.00
2023-03-13T16:25:13.524Z,1.00
2023-03-13T16:27:41.874Z,1.00
2023-03-13T16:30:21.286Z,1.00
2023-03-13T16:32:48.121Z,1.00
2023-03-13T16:35:14.988Z,3.70
2023-03-13T16:37:41.814Z,2.30
2023-03-13T16:40:17.402Z,10.70
2023-03-13T16:42:44.650Z,12.20
2023-03-13T16:45:11.893Z,13.80
2023-03-13T16:47:38.731Z,19.30
2023-03-13T16:50:29.430Z,20.60
2023-03-13T16:52:56.135Z,34.50
2023-03-13T16:55:28.732Z,39.70
2023-03-13T16:57:57.344Z,53.00
2023-03-13T17:00:26.088Z,60.30
2023-03-13T17:02:53.308Z,65.40
2023-03-13T17:05:20.562Z,67.50
2023-03-13T17:07:49.487Z,70.70
2023-03-13T17:10:26.714Z,75.70
2023-03-13T17:12:53.548Z,82.70
2023-03-13T17:15:20.755Z,85.70
2023-03-13T17:17:51.809Z,81.80
2023-03-13T17:20:21.954Z,89.10
2023-03-13T17:22:49.062Z,91.50
2023-03-13T17:25:15.929Z,1.00
2023-03-13T17:27:43.677Z,1.00
2023-03-13T17:30:23.162Z,1.00
2023-03-13T17:32:50.363Z,1.00
2023-03-13T17:35:18.070Z,1.00
2023-03-13T17:37:45.540Z,1.00
2023-03-13T17:40:24.632Z,1.00
2023-03-13T17:42:51.438Z,1.00
2023-03-13T17:45:19.145Z,3.90
2023-03-13T17:47:46.503Z,50.00
2023-03-13T17:50:26.886Z,79.10
2023-03-13T17:52:54.405Z,1.00
2023-03-13T17:55:21.911Z,1.00
2023-03-13T17:57:49.399Z,58.40
2023-03-13T18:00:31.962Z,80.30
2023-03-13T18:02:59.885Z,1.00
2023-03-13T18:05:27.174Z,1.00
2023-03-13T18:07:57.378Z,5.50
2023-03-13T18:10:26.778Z,61.70
2023-03-13T18:12:53.679Z,87.60
2023-03-13T18:15:21.939Z,1.00
2023-03-13T18:17:49.460Z,30.40
2023-03-13T18:20:23.417Z,75.10
2023-03-13T18:22:50.567Z,1.00
2023-03-13T18:25:17.672Z,1.00
2023-03-13T18:27:44.460Z,66.50
2023-03-13T18:30:17.904Z,1.00
2023-03-13T18:32:45.168Z,1.00
2023-03-13T18:35:13.697Z,40.30
2023-03-13T18:37:41.502Z,81.40
2023-03-13T18:40:19.196Z,20.00
2023-03-13T18:42:46.358Z,20.60
2023-03-13T18:45:21.768Z,69.50
2023-03-13T18:47:48.784Z,1.00
2023-03-13T18:50:26.694Z,1.00
2023-03-13T18:52:55.637Z,62.00
2023-03-13T18:55:27.614Z,1.00
2023-03-13T18:57:55.485Z,1.00
2023-03-13T19:00:28.651Z,73.70
2023-03-13T19:02:55.937Z,1.00
2023-03-13T19:05:23.257Z,1.00
2023-03-13T19:07:49.967Z,1.00
2023-03-13T19:10:20.979Z,1.00
2023-03-13T19:12:47.897Z,78.50
2023-03-13T19:15:15.117Z,1.00
2023-03-13T19:17:42.476Z,1.00
2023-03-13T19:20:18.222Z,1.00
2023-03-13T19:22:45.142Z,8.30
2023-03-13T19:25:14.111Z,76.10
2023-03-13T19:27:40.805Z,84.00
2023-03-13T19:30:22.476Z,1.00
2023-03-13T19:32:49.341Z,4.40
2023-03-13T19:35:21.641Z,12.60
2023-03-13T19:37:48.557Z,1.00
2023-03-13T19:40:28.676Z,85.60
2023-03-13T19:42:55.450Z,1.00
2023-03-13T19:45:22.334Z,1.00
2023-03-13T19:47:49.175Z,1.00
2023-03-13T19:50:22.220Z,1.00
2023-03-13T19:52:49.147Z,65.20
2023-03-13T19:55:16.087Z,65.80
2023-03-13T19:57:42.865Z,43.50
2023-03-13T20:00:21.456Z,53.80
2023-03-13T20:02:49.034Z,85.80
2023-03-13T20:05:15.940Z,1.00
2023-03-13T20:07:42.764Z,38.00
2023-03-13T20:10:10.142Z,90.90
2023-03-13T20:12:36.894Z,1.00
2023-03-13T20:15:04.006Z,10.10
2023-03-13T20:17:30.723Z,74.30
2023-03-13T20:19:57.490Z,1.00
2023-03-13T20:22:24.296Z,69.10
2023-03-13T20:24:51.071Z,1.00
2023-03-13T20:27:17.835Z,1.00
2023-03-13T20:29:44.731Z,64.90
2023-03-13T20:32:13.245Z,68.00
2023-03-13T20:34:40.058Z,1.00
2023-03-13T20:37:06.849Z,72.40
2023-03-13T20:39:35.054Z,1.00
2023-03-13T20:42:03.244Z,70.10
2023-03-13T20:44:30.119Z,1.00
2023-03-13T20:46:56.832Z,1.00
2023-03-13T20:49:23.592Z,78.30
2023-03-13T20:51:50.386Z,83.00
2023-03-13T20:54:17.260Z,88.00
2023-03-13T20:56:44.075Z,89.70
2023-03-13T20:59:10.745Z,90.60
2023-03-13T21:01:37.496Z,91.00
2023-03-13T21:04:04.489Z,91.10
2023-03-13T21:06:31.311Z,91.20
2023-03-13T21:08:58.058Z,91.30
2023-03-13T21:11:24.909Z,91.40
2023-03-13T21:13:51.853Z,91.40
2023-03-13T21:16:19.888Z,91.40
2023-03-13T21:18:47.109Z,91.40
2023-03-13T21:21:20.523Z,91.40
2023-03-13T21:23:47.538Z,91.50
2023-03-13T21:26:14.890Z,91.70
2023-03-13T21:28:42.052Z,91.40
2023-03-13T21:31:14.550Z,91.30
2023-03-13T21:33:42.810Z,91.20
2023-03-13T21:36:11.170Z,91.10
2023-03-13T21:38:38.021Z,90.80
2023-03-13T21:41:16.603Z,90.70
2023-03-13T21:43:43.719Z,90.70
2023-03-13T21:46:14.361Z,90.80
2023-03-13T21:48:42.799Z,90.80
2023-03-13T21:51:10.532Z,90.80
2023-03-13T21:53:38.277Z,90.80
2023-03-13T21:56:05.385Z,90.90
2023-03-13T21:58:32.113Z,90.90
2023-03-13T22:00:59.440Z,91.00
2023-03-13T22:03:29.188Z,91.00
2023-03-13T22:05:56.199Z,91.00
2023-03-13T22:08:22.970Z,91.10
2023-03-13T22:10:51.693Z,91.10
2023-03-13T22:13:18.999Z,91.20
2023-03-13T22:15:46.839Z,91.20
2023-03-13T22:18:17.012Z,91.20
2023-03-13T22:20:44.055Z,91.20
2023-03-13T22:23:13.588Z,91.20
2023-03-13T22:25:42.534Z,91.30
2023-03-13T22:28:10.683Z,91.30
2023-03-13T22:30:40.374Z,91.30
2023-03-13T22:33:08.029Z,91.30
2023-03-13T22:35:37.066Z,91.30
2023-03-13T22:38:04.488Z,91.30
2023-03-13T22:40:31.600Z,91.30
2023-03-13T22:42:58.457Z,91.30
2023-03-13T22:45:25.198Z,91.30
2023-03-13T22:47:51.972Z,91.30
2023-03-13T22:50:20.914Z,91.30
2023-03-13T22:52:47.653Z,91.30
2023-03-13T22:55:14.329Z,91.40
2023-03-13T22:57:41.055Z,91.40
2023-03-13T23:00:09.042Z,91.30
2023-03-13T23:02:35.795Z,91.30
2023-03-13T23:05:02.547Z,91.30
2023-03-13T23:07:30.259Z,91.30
2023-03-13T23:09:57.952Z,91.30
2023-03-13T23:12:25.212Z,91.30
2023-03-13T23:14:52.283Z,91.30
2023-03-13T23:17:21.825Z,91.30
2023-03-13T23:19:48.613Z,91.40
2023-03-13T23:22:18.034Z,91.30
2023-03-13T23:24:45.069Z,91.30
2023-03-13T23:27:12.033Z,91.40
2023-03-13T23:29:39.536Z,91.40
2023-03-13T23:32:06.462Z,91.40
2023-03-13T23:34:35.475Z,91.40
2023-03-13T23:37:02.251Z,91.40
2023-03-13T23:39:29.155Z,91.40
2023-03-13T23:41:56.263Z,91.40
2023-03-13T23:44:23.038Z,91.40
2023-03-13T23:46:49.782Z,91.40
2023-03-13T23:49:16.571Z,91.40
2023-03-13T23:51:43.373Z,91.40
2023-03-13T23:54:10.078Z,91.40
2023-03-13T23:56:36.767Z,91.40
2023-03-13T23:59:03.493Z,91.40
